sensor_id;sensor_type;location;lat;lon;timestamp;P1;durP1;ratioP1;P2;durP2;ratioP2
84757;SDS011;74981;52.476;16.656;2024-01-06T00:01:12;20.60;;;10.10;;
84757;SDS011;74981;52.476;16.656;2024-01-06T00:06:15;17.10;;;8.80;;
84757;SDS011;74981;52.476;16.656;2024-01-06T00:11:17;22.80;;;9.80;;
84757;SDS011;74981;52.476;16.656;2024-01-06T00:16:19;9.70;;;5.20;;
84757;SDS011;74981;52.476;16.656;2024-01-06T00:21:21;10.60;;;5.60;;
84757;SDS011;74981;52.476;16.656;2024-01-06T00:26:23;20.10;;;9.10;;
84757;SDS011;74981;52.476;16.656;2024-01-06T00:31:24;11.20;;;6.40;;
84757;SDS011;74981;52.476;16.656;2024-01-06T00:36:26;15.70;;;8.00;;
84757;SDS011;74981;52.476;16.656;2024-01-06T00:41:28;19.30;;;10.00;;
84757;SDS011;74981;52.476;16.656;2024-01-06T00:46:30;10.20;;;5.40;;
84757;SDS011;74981;52.476;16.656;2024-01-06T00:51:32;12.10;;;6.30;;
84757;SDS011;74981;52.476;16.656;2024-01-06T00:56:34;16.20;;;8.00;;
84757;SDS011;74981;52.476;16.656;2024-01-06T01:01:36;10.00;;;5.30;;
84757;SDS011;74981;52.476;16.656;2024-01-06T01:06:37;16.60;;;9.70;;
84757;SDS011;74981;52.476;16.656;2024-01-06T01:11:39;13.60;;;8.10;;
84757;SDS011;74981;52.476;16.656;2024-01-06T01:16:41;20.60;;;11.20;;
84757;SDS011;74981;52.476;16.656;2024-01-06T01:21:43;15.00;;;6.90;;
84757;SDS011;74981;52.476;16.656;2024-01-06T01:26:45;20.30;;;9.20;;
84757;SDS011;74981;52.476;16.656;2024-01-06T01:31:47;18.80;;;10.00;;
84757;SDS011;74981;52.476;16.656;2024-01-06T01:36:48;17.30;;;10.00;;
84757;SDS011;74981;52.476;16.656;2024-01-06T01:41:50;12.90;;;8.00;;
84757;SDS011;74981;52.476;16.656;2024-01-06T01:46:52;16.90;;;8.30;;
84757;SDS011;74981;52.476;16.656;2024-01-06T01:51:54;8.90;;;4.60;;
84757;SDS011;74981;52.476;16.656;2024-01-06T01:56:56;21.50;;;11.80;;
84757;SDS011;74981;52.476;16.656;2024-01-06T02:01:58;9.20;;;6.40;;
84757;SDS011;74981;52.476;16.656;2024-01-06T02:07:00;10.20;;;7.50;;
84757;SDS011;74981;52.476;16.656;2024-01-06T02:12:02;12.70;;;6.10;;
84757;SDS011;74981;52.476;16.656;2024-01-06T02:17:05;13.70;;;7.00;;
84757;SDS011;74981;52.476;16.656;2024-01-06T02:22:06;13.70;;;7.20;;
84757;SDS011;74981;52.476;16.656;2024-01-06T02:27:09;17.20;;;8.60;;
84757;SDS011;74981;52.476;16.656;2024-01-06T02:32:11;11.40;;;6.30;;
84757;SDS011;74981;52.476;16.656;2024-01-06T02:37:12;11.10;;;5.60;;
84757;SDS011;74981;52.476;16.656;2024-01-06T02:42:14;17.30;;;9.40;;
84757;SDS011;74981;52.476;16.656;2024-01-06T02:47:17;6.70;;;4.10;;
84757;SDS011;74981;52.476;16.656;2024-01-06T02:52:18;15.80;;;8.80;;
84757;SDS011;74981;52.476;16.656;2024-01-06T02:57:20;12.60;;;6.10;;
84757;SDS011;74981;52.476;16.656;2024-01-06T03:02:22;11.60;;;6.40;;
84757;SDS011;74981;52.476;16.656;2024-01-06T03:07:24;13.60;;;7.10;;
84757;SDS011;74981;52.476;16.656;2024-01-06T03:12:26;10.40;;;6.60;;
84757;SDS011;74981;52.476;16.656;2024-01-06T03:17:28;13.00;;;8.80;;
84757;SDS011;74981;52.476;16.656;2024-01-06T03:22:30;16.60;;;8.30;;
84757;SDS011;74981;52.476;16.656;2024-01-06T03:27:31;17.10;;;7.80;;
84757;SDS011;74981;52.476;16.656;2024-01-06T03:32:33;14.80;;;8.30;;
84757;SDS011;74981;52.476;16.656;2024-01-06T03:37:35;12.20;;;8.60;;
84757;SDS011;74981;52.476;16.656;2024-01-06T03:42:37;13.90;;;7.50;;
84757;SDS011;74981;52.476;16.656;2024-01-06T03:47:39;18.90;;;8.30;;
84757;SDS011;74981;52.476;16.656;2024-01-06T03:52:40;14.20;;;9.40;;
84757;SDS011;74981;52.476;16.656;2024-01-06T03:57:42;9.40;;;5.10;;
84757;SDS011;74981;52.476;16.656;2024-01-06T04:02:44;10.50;;;8.00;;
84757;SDS011;74981;52.476;16.656;2024-01-06T04:07:46;11.90;;;5.90;;
84757;SDS011;74981;52.476;16.656;2024-01-06T04:12:48;15.50;;;11.60;;
84757;SDS011;74981;52.476;16.656;2024-01-06T04:17:49;12.70;;;7.30;;
84757;SDS011;74981;52.476;16.656;2024-01-06T04:22:51;13.90;;;8.60;;
84757;SDS011;74981;52.476;16.656;2024-01-06T04:27:53;12.00;;;6.30;;
84757;SDS011;74981;52.476;16.656;2024-01-06T04:32:55;13.00;;;7.20;;
84757;SDS011;74981;52.476;16.656;2024-01-06T04:37:56;18.40;;;9.80;;
84757;SDS011;74981;52.476;16.656;2024-01-06T04:42:58;11.30;;;5.20;;
84757;SDS011;74981;52.476;16.656;2024-01-06T04:48:00;8.00;;;5.40;;
84757;SDS011;74981;52.476;16.656;2024-01-06T04:53:02;12.40;;;7.80;;
84757;SDS011;74981;52.476;16.656;2024-01-06T04:58:04;13.40;;;9.40;;
84757;SDS011;74981;52.476;16.656;2024-01-06T05:03:06;9.80;;;5.10;;
84757;SDS011;74981;52.476;16.656;2024-01-06T05:08:08;6.70;;;4.50;;
84757;SDS011;74981;52.476;16.656;2024-01-06T05:13:09;10.60;;;6.90;;
84757;SDS011;74981;52.476;16.656;2024-01-06T05:18:11;13.50;;;7.00;;
84757;SDS011;74981;52.476;16.656;2024-01-06T05:23:13;14.50;;;7.10;;
84757;SDS011;74981;52.476;16.656;2024-01-06T05:28:15;10.70;;;7.00;;
84757;SDS011;74981;52.476;16.656;2024-01-06T05:33:17;9.10;;;4.80;;
84757;SDS011;74981;52.476;16.656;2024-01-06T05:38:19;5.70;;;3.80;;
84757;SDS011;74981;52.476;16.656;2024-01-06T05:43:20;10.20;;;5.40;;
84757;SDS011;74981;52.476;16.656;2024-01-06T05:48:22;11.30;;;6.40;;
84757;SDS011;74981;52.476;16.656;2024-01-06T05:53:24;12.70;;;7.50;;
84757;SDS011;74981;52.476;16.656;2024-01-06T05:58:26;8.60;;;7.20;;
84757;SDS011;74981;52.476;16.656;2024-01-06T06:03:28;10.90;;;6.50;;
84757;SDS011;74981;52.476;16.656;2024-01-06T06:08:29;11.30;;;7.00;;
84757;SDS011;74981;52.476;16.656;2024-01-06T06:13:31;10.50;;;6.60;;
84757;SDS011;74981;52.476;16.656;2024-01-06T06:18:33;10.50;;;5.70;;
84757;SDS011;74981;52.476;16.656;2024-01-06T06:23:35;7.90;;;3.60;;
84757;SDS011;74981;52.476;16.656;2024-01-06T06:28:37;8.10;;;4.50;;
84757;SDS011;74981;52.476;16.656;2024-01-06T06:33:38;11.70;;;7.20;;
84757;SDS011;74981;52.476;16.656;2024-01-06T06:38:40;10.00;;;6.30;;
84757;SDS011;74981;52.476;16.656;2024-01-06T06:43:42;6.50;;;3.10;;
84757;SDS011;74981;52.476;16.656;2024-01-06T06:48:44;9.40;;;5.10;;
84757;SDS011;74981;52.476;16.656;2024-01-06T06:53:46;8.70;;;6.20;;
84757;SDS011;74981;52.476;16.656;2024-01-06T06:58:47;10.00;;;4.60;;
84757;SDS011;74981;52.476;16.656;2024-01-06T07:03:49;13.10;;;8.10;;
84757;SDS011;74981;52.476;16.656;2024-01-06T07:08:51;12.50;;;7.20;;
84757;SDS011;74981;52.476;16.656;2024-01-06T07:13:53;17.80;;;8.20;;
84757;SDS011;74981;52.476;16.656;2024-01-06T07:18:55;8.40;;;5.20;;
84757;SDS011;74981;52.476;16.656;2024-01-06T07:23:56;13.20;;;8.50;;
84757;SDS011;74981;52.476;16.656;2024-01-06T07:28:58;10.60;;;5.80;;
84757;SDS011;74981;52.476;16.656;2024-01-06T07:34:00;15.90;;;8.80;;
84757;SDS011;74981;52.476;16.656;2024-01-06T07:39:02;12.20;;;6.30;;
84757;SDS011;74981;52.476;16.656;2024-01-06T07:44:04;17.20;;;10.00;;
84757;SDS011;74981;52.476;16.656;2024-01-06T07:49:06;14.00;;;5.80;;
84757;SDS011;74981;52.476;16.656;2024-01-06T07:54:08;10.10;;;5.30;;
84757;SDS011;74981;52.476;16.656;2024-01-06T07:59:10;15.80;;;9.40;;
84757;SDS011;74981;52.476;16.656;2024-01-06T08:04:12;15.60;;;7.10;;
84757;SDS011;74981;52.476;16.656;2024-01-06T08:09:14;12.20;;;7.70;;
84757;SDS011;74981;52.476;16.656;2024-01-06T08:14:16;18.80;;;9.00;;
84757;SDS011;74981;52.476;16.656;2024-01-06T08:19:17;17.60;;;8.80;;
84757;SDS011;74981;52.476;16.656;2024-01-06T08:24:19;21.30;;;11.20;;
84757;SDS011;74981;52.476;16.656;2024-01-06T08:29:21;16.00;;;7.70;;
84757;SDS011;74981;52.476;16.656;2024-01-06T08:34:23;16.60;;;8.10;;
84757;SDS011;74981;52.476;16.656;2024-01-06T08:39:25;15.70;;;7.80;;
84757;SDS011;74981;52.476;16.656;2024-01-06T08:44:27;12.90;;;7.80;;
84757;SDS011;74981;52.476;16.656;2024-01-06T08:49:28;17.00;;;10.60;;
84757;SDS011;74981;52.476;16.656;2024-01-06T08:54:30;15.90;;;9.20;;
84757;SDS011;74981;52.476;16.656;2024-01-06T08:59:32;18.10;;;10.80;;
84757;SDS011;74981;52.476;16.656;2024-01-06T09:04:34;22.20;;;11.90;;
84757;SDS011;74981;52.476;16.656;2024-01-06T09:09:36;25.00;;;12.20;;
84757;SDS011;74981;52.476;16.656;2024-01-06T09:14:38;10.20;;;7.30;;
84757;SDS011;74981;52.476;16.656;2024-01-06T09:19:40;9.50;;;6.10;;
84757;SDS011;74981;52.476;16.656;2024-01-06T09:24:42;16.10;;;9.90;;
84757;SDS011;74981;52.476;16.656;2024-01-06T09:29:44;16.50;;;8.30;;
84757;SDS011;74981;52.476;16.656;2024-01-06T09:34:45;13.30;;;8.10;;
84757;SDS011;74981;52.476;16.656;2024-01-06T09:39:47;16.90;;;8.70;;
84757;SDS011;74981;52.476;16.656;2024-01-06T09:44:49;11.00;;;6.20;;
84757;SDS011;74981;52.476;16.656;2024-01-06T09:49:51;16.70;;;9.20;;
84757;SDS011;74981;52.476;16.656;2024-01-06T09:54:56;10.00;;;5.50;;
84757;SDS011;74981;52.476;16.656;2024-01-06T10:00:00;12.90;;;8.70;;
84757;SDS011;74981;52.476;16.656;2024-01-06T10:05:03;14.00;;;6.90;;
84757;SDS011;74981;52.476;16.656;2024-01-06T10:10:07;16.90;;;9.20;;
84757;SDS011;74981;52.476;16.656;2024-01-06T10:15:10;10.10;;;7.20;;
84757;SDS011;74981;52.476;16.656;2024-01-06T10:20:12;9.30;;;5.70;;
84757;SDS011;74981;52.476;16.656;2024-01-06T10:25:14;18.00;;;10.20;;
84757;SDS011;74981;52.476;16.656;2024-01-06T10:30:16;10.30;;;7.50;;
84757;SDS011;74981;52.476;16.656;2024-01-06T10:35:19;8.30;;;4.40;;
84757;SDS011;74981;52.476;16.656;2024-01-06T10:40:21;16.60;;;9.20;;
84757;SDS011;74981;52.476;16.656;2024-01-06T10:45:23;11.80;;;6.30;;
84757;SDS011;74981;52.476;16.656;2024-01-06T10:50:24;12.80;;;6.40;;
84757;SDS011;74981;52.476;16.656;2024-01-06T10:55:28;13.00;;;5.80;;
84757;SDS011;74981;52.476;16.656;2024-01-06T11:00:30;13.30;;;7.40;;
84757;SDS011;74981;52.476;16.656;2024-01-06T11:05:32;14.00;;;6.50;;
84757;SDS011;74981;52.476;16.656;2024-01-06T11:10:35;6.30;;;3.20;;
84757;SDS011;74981;52.476;16.656;2024-01-06T11:15:41;7.60;;;4.40;;
84757;SDS011;74981;52.476;16.656;2024-01-06T11:26:19;11.00;;;6.00;;
84757;SDS011;74981;52.476;16.656;2024-01-06T11:31:21;8.30;;;6.40;;
84757;SDS011;74981;52.476;16.656;2024-01-06T11:36:22;6.30;;;3.40;;
84757;SDS011;74981;52.476;16.656;2024-01-06T11:46:52;8.50;;;5.90;;
84757;SDS011;74981;52.476;16.656;2024-01-06T11:52:00;3.80;;;2.30;;
84757;SDS011;74981;52.476;16.656;2024-01-06T11:57:01;3.40;;;2.30;;
84757;SDS011;74981;52.476;16.656;2024-01-06T12:02:04;6.00;;;4.90;;
84757;SDS011;74981;52.476;16.656;2024-01-06T12:07:11;5.90;;;4.30;;
84757;SDS011;74981;52.476;16.656;2024-01-06T12:12:14;6.60;;;4.00;;
84757;SDS011;74981;52.476;16.656;2024-01-06T12:17:17;4.50;;;3.90;;
84757;SDS011;74981;52.476;16.656;2024-01-06T12:22:21;6.80;;;4.80;;
84757;SDS011;74981;52.476;16.656;2024-01-06T12:27:24;5.00;;;3.40;;
84757;SDS011;74981;52.476;16.656;2024-01-06T12:32:26;4.30;;;3.00;;
84757;SDS011;74981;52.476;16.656;2024-01-06T12:37:28;8.90;;;5.60;;
84757;SDS011;74981;52.476;16.656;2024-01-06T12:42:29;5.50;;;3.80;;
84757;SDS011;74981;52.476;16.656;2024-01-06T12:47:31;6.30;;;3.20;;
84757;SDS011;74981;52.476;16.656;2024-01-06T12:52:33;5.80;;;3.80;;
84757;SDS011;74981;52.476;16.656;2024-01-06T12:57:35;5.50;;;3.60;;
84757;SDS011;74981;52.476;16.656;2024-01-06T13:02:37;7.60;;;4.80;;
84757;SDS011;74981;52.476;16.656;2024-01-06T13:07:39;6.60;;;3.70;;
84757;SDS011;74981;52.476;16.656;2024-01-06T13:12:41;6.90;;;4.90;;
84757;SDS011;74981;52.476;16.656;2024-01-06T13:17:43;7.20;;;3.40;;
84757;SDS011;74981;52.476;16.656;2024-01-06T13:22:54;7.50;;;4.90;;
84757;SDS011;74981;52.476;16.656;2024-01-06T13:27:58;9.30;;;6.20;;
84757;SDS011;74981;52.476;16.656;2024-01-06T13:33:00;10.60;;;5.50;;
84757;SDS011;74981;52.476;16.656;2024-01-06T13:38:02;5.90;;;3.80;;
84757;SDS011;74981;52.476;16.656;2024-01-06T13:43:04;6.00;;;3.70;;
84757;SDS011;74981;52.476;16.656;2024-01-06T13:48:07;9.70;;;3.70;;
84757;SDS011;74981;52.476;16.656;2024-01-06T13:53:09;6.40;;;3.70;;
84757;SDS011;74981;52.476;16.656;2024-01-06T13:58:10;9.10;;;5.90;;
84757;SDS011;74981;52.476;16.656;2024-01-06T14:03:12;3.30;;;2.00;;
84757;SDS011;74981;52.476;16.656;2024-01-06T14:08:14;4.80;;;2.80;;
84757;SDS011;74981;52.476;16.656;2024-01-06T14:13:16;5.80;;;3.20;;
84757;SDS011;74981;52.476;16.656;2024-01-06T14:18:18;7.70;;;2.90;;
84757;SDS011;74981;52.476;16.656;2024-01-06T14:23:20;8.20;;;3.00;;
84757;SDS011;74981;52.476;16.656;2024-01-06T14:28:22;5.60;;;2.50;;
84757;SDS011;74981;52.476;16.656;2024-01-06T14:33:24;7.00;;;4.00;;
84757;SDS011;74981;52.476;16.656;2024-01-06T14:38:26;7.60;;;3.50;;
84757;SDS011;74981;52.476;16.656;2024-01-06T14:43:28;5.80;;;3.70;;
84757;SDS011;74981;52.476;16.656;2024-01-06T14:48:29;5.90;;;3.40;;
84757;SDS011;74981;52.476;16.656;2024-01-06T14:53:31;8.40;;;4.40;;
84757;SDS011;74981;52.476;16.656;2024-01-06T14:58:33;5.30;;;2.60;;
84757;SDS011;74981;52.476;16.656;2024-01-06T15:03:35;4.30;;;2.40;;
84757;SDS011;74981;52.476;16.656;2024-01-06T15:08:36;8.00;;;4.00;;
84757;SDS011;74981;52.476;16.656;2024-01-06T15:13:38;10.40;;;5.20;;
84757;SDS011;74981;52.476;16.656;2024-01-06T15:18:40;9.00;;;4.30;;
84757;SDS011;74981;52.476;16.656;2024-01-06T15:23:42;6.60;;;2.80;;
84757;SDS011;74981;52.476;16.656;2024-01-06T15:28:44;6.90;;;3.70;;
84757;SDS011;74981;52.476;16.656;2024-01-06T15:33:46;8.10;;;4.10;;
84757;SDS011;74981;52.476;16.656;2024-01-06T15:38:48;7.90;;;4.00;;
84757;SDS011;74981;52.476;16.656;2024-01-06T15:43:50;7.00;;;5.20;;
84757;SDS011;74981;52.476;16.656;2024-01-06T15:48:52;7.60;;;3.90;;
84757;SDS011;74981;52.476;16.656;2024-01-06T15:53:53;16.90;;;5.50;;
84757;SDS011;74981;52.476;16.656;2024-01-06T15:58:55;9.00;;;5.30;;
84757;SDS011;74981;52.476;16.656;2024-01-06T16:03:57;11.00;;;4.50;;
84757;SDS011;74981;52.476;16.656;2024-01-06T16:08:59;7.50;;;3.80;;
84757;SDS011;74981;52.476;16.656;2024-01-06T16:14:00;10.00;;;5.60;;
84757;SDS011;74981;52.476;16.656;2024-01-06T16:19:02;8.20;;;4.40;;
84757;SDS011;74981;52.476;16.656;2024-01-06T16:24:05;6.50;;;3.00;;
84757;SDS011;74981;52.476;16.656;2024-01-06T16:29:08;7.30;;;4.40;;
84757;SDS011;74981;52.476;16.656;2024-01-06T16:34:10;6.00;;;3.20;;
84757;SDS011;74981;52.476;16.656;2024-01-06T16:39:12;5.90;;;3.10;;
84757;SDS011;74981;52.476;16.656;2024-01-06T16:44:13;9.30;;;5.60;;
84757;SDS011;74981;52.476;16.656;2024-01-06T16:49:15;5.40;;;4.30;;
84757;SDS011;74981;52.476;16.656;2024-01-06T16:54:17;6.80;;;4.00;;
84757;SDS011;74981;52.476;16.656;2024-01-06T16:59:19;5.20;;;3.20;;
84757;SDS011;74981;52.476;16.656;2024-01-06T17:04:21;10.00;;;4.40;;
84757;SDS011;74981;52.476;16.656;2024-01-06T17:09:22;7.80;;;6.40;;
84757;SDS011;74981;52.476;16.656;2024-01-06T17:14:24;5.80;;;3.50;;
84757;SDS011;74981;52.476;16.656;2024-01-06T17:19:26;12.70;;;7.60;;
84757;SDS011;74981;52.476;16.656;2024-01-06T17:24:28;7.50;;;3.00;;
84757;SDS011;74981;52.476;16.656;2024-01-06T17:29:29;8.70;;;4.70;;
84757;SDS011;74981;52.476;16.656;2024-01-06T17:34:31;7.50;;;3.60;;
84757;SDS011;74981;52.476;16.656;2024-01-06T17:39:33;5.80;;;3.80;;
84757;SDS011;74981;52.476;16.656;2024-01-06T17:44:35;6.30;;;3.50;;
84757;SDS011;74981;52.476;16.656;2024-01-06T17:49:37;8.10;;;4.80;;
84757;SDS011;74981;52.476;16.656;2024-01-06T17:54:39;8.10;;;5.00;;
84757;SDS011;74981;52.476;16.656;2024-01-06T17:59:40;7.90;;;5.80;;
84757;SDS011;74981;52.476;16.656;2024-01-06T18:04:42;9.00;;;4.40;;
84757;SDS011;74981;52.476;16.656;2024-01-06T18:09:44;9.10;;;6.20;;
84757;SDS011;74981;52.476;16.656;2024-01-06T18:14:46;7.50;;;2.50;;
84757;SDS011;74981;52.476;16.656;2024-01-06T18:19:48;9.90;;;3.80;;
84757;SDS011;74981;52.476;16.656;2024-01-06T18:24:50;5.00;;;2.80;;
84757;SDS011;74981;52.476;16.656;2024-01-06T18:29:51;9.60;;;8.70;;
84757;SDS011;74981;52.476;16.656;2024-01-06T18:34:53;6.90;;;3.60;;
84757;SDS011;74981;52.476;16.656;2024-01-06T18:39:55;8.70;;;5.90;;
84757;SDS011;74981;52.476;16.656;2024-01-06T18:44:57;7.30;;;3.50;;
84757;SDS011;74981;52.476;16.656;2024-01-06T18:49:59;7.50;;;4.10;;
84757;SDS011;74981;52.476;16.656;2024-01-06T18:55:01;5.60;;;3.60;;
84757;SDS011;74981;52.476;16.656;2024-01-06T19:00:04;6.50;;;4.20;;
84757;SDS011;74981;52.476;16.656;2024-01-06T19:05:07;7.40;;;4.70;;
84757;SDS011;74981;52.476;16.656;2024-01-06T19:10:09;14.80;;;5.90;;
84757;SDS011;74981;52.476;16.656;2024-01-06T19:15:11;10.20;;;5.00;;
84757;SDS011;74981;52.476;16.656;2024-01-06T19:20:13;8.60;;;4.40;;
84757;SDS011;74981;52.476;16.656;2024-01-06T19:25:15;7.90;;;3.60;;
84757;SDS011;74981;52.476;16.656;2024-01-06T19:30:17;6.20;;;4.10;;
84757;SDS011;74981;52.476;16.656;2024-01-06T19:35:19;5.90;;;3.40;;
84757;SDS011;74981;52.476;16.656;2024-01-06T19:40:21;6.10;;;4.20;;
84757;SDS011;74981;52.476;16.656;2024-01-06T19:45:23;8.30;;;4.80;;
84757;SDS011;74981;52.476;16.656;2024-01-06T19:50:24;9.90;;;4.90;;
84757;SDS011;74981;52.476;16.656;2024-01-06T19:55:26;6.10;;;3.80;;
84757;SDS011;74981;52.476;16.656;2024-01-06T20:00:28;7.70;;;4.30;;
84757;SDS011;74981;52.476;16.656;2024-01-06T20:05:31;9.00;;;4.10;;
84757;SDS011;74981;52.476;16.656;2024-01-06T20:10:33;10.10;;;5.90;;
84757;SDS011;74981;52.476;16.656;2024-01-06T20:15:34;8.50;;;5.80;;
84757;SDS011;74981;52.476;16.656;2024-01-06T20:20:36;6.20;;;3.20;;
84757;SDS011;74981;52.476;16.656;2024-01-06T20:25:38;5.10;;;2.50;;
84757;SDS011;74981;52.476;16.656;2024-01-06T20:30:40;7.40;;;3.60;;
84757;SDS011;74981;52.476;16.656;2024-01-06T20:35:42;8.90;;;5.10;;
84757;SDS011;74981;52.476;16.656;2024-01-06T20:40:44;6.10;;;3.90;;
84757;SDS011;74981;52.476;16.656;2024-01-06T20:45:46;7.80;;;4.70;;
84757;SDS011;74981;52.476;16.656;2024-01-06T20:50:48;10.20;;;4.60;;
84757;SDS011;74981;52.476;16.656;2024-01-06T20:55:50;6.40;;;3.30;;
84757;SDS011;74981;52.476;16.656;2024-01-06T21:00:51;7.10;;;3.10;;
84757;SDS011;74981;52.476;16.656;2024-01-06T21:05:53;7.70;;;6.20;;
84757;SDS011;74981;52.476;16.656;2024-01-06T21:10:56;8.10;;;4.40;;
84757;SDS011;74981;52.476;16.656;2024-01-06T21:15:58;5.80;;;3.80;;
84757;SDS011;74981;52.476;16.656;2024-01-06T21:21:01;10.60;;;4.90;;
84757;SDS011;74981;52.476;16.656;2024-01-06T21:26:03;7.70;;;5.50;;
84757;SDS011;74981;52.476;16.656;2024-01-06T21:31:05;7.20;;;4.70;;
84757;SDS011;74981;52.476;16.656;2024-01-06T21:36:09;5.20;;;2.70;;
84757;SDS011;74981;52.476;16.656;2024-01-06T21:41:10;6.70;;;5.20;;
84757;SDS011;74981;52.476;16.656;2024-01-06T21:46:12;8.50;;;3.60;;
84757;SDS011;74981;52.476;16.656;2024-01-06T21:51:15;11.00;;;4.30;;
84757;SDS011;74981;52.476;16.656;2024-01-06T21:56:17;6.10;;;4.30;;
84757;SDS011;74981;52.476;16.656;2024-01-06T22:01:19;6.10;;;3.70;;
84757;SDS011;74981;52.476;16.656;2024-01-06T22:06:21;6.80;;;3.00;;
84757;SDS011;74981;52.476;16.656;2024-01-06T22:11:23;4.90;;;3.70;;
84757;SDS011;74981;52.476;16.656;2024-01-06T22:16:24;5.00;;;3.60;;
84757;SDS011;74981;52.476;16.656;2024-01-06T22:21:26;6.10;;;3.80;;
84757;SDS011;74981;52.476;16.656;2024-01-06T22:26:28;7.50;;;4.60;;
84757;SDS011;74981;52.476;16.656;2024-01-06T22:31:30;7.40;;;5.30;;
84757;SDS011;74981;52.476;16.656;2024-01-06T22:36:32;4.80;;;3.00;;
84757;SDS011;74981;52.476;16.656;2024-01-06T22:41:33;6.10;;;2.70;;
84757;SDS011;74981;52.476;16.656;2024-01-06T22:46:35;4.80;;;2.50;;
84757;SDS011;74981;52.476;16.656;2024-01-06T22:51:37;4.50;;;2.80;;
84757;SDS011;74981;52.476;16.656;2024-01-06T22:56:39;4.30;;;2.90;;
84757;SDS011;74981;52.476;16.656;2024-01-06T23:01:41;6.80;;;3.90;;
84757;SDS011;74981;52.476;16.656;2024-01-06T23:06:43;5.10;;;3.10;;
84757;SDS011;74981;52.476;16.656;2024-01-06T23:11:45;6.00;;;3.40;;
84757;SDS011;74981;52.476;16.656;2024-01-06T23:16:46;5.40;;;4.20;;
84757;SDS011;74981;52.476;16.656;2024-01-06T23:21:48;5.20;;;2.20;;
84757;SDS011;74981;52.476;16.656;2024-01-06T23:26:50;6.80;;;3.00;;
84757;SDS011;74981;52.476;16.656;2024-01-06T23:31:52;7.80;;;4.00;;
84757;SDS011;74981;52.476;16.656;2024-01-06T23:36:54;5.90;;;3.40;;
84757;SDS011;74981;52.476;16.656;2024-01-06T23:41:55;5.40;;;3.30;;
84757;SDS011;74981;52.476;16.656;2024-01-06T23:46:57;4.20;;;2.60;;
84757;SDS011;74981;52.476;16.656;2024-01-06T23:51:59;6.20;;;5.30;;
84757;SDS011;74981;52.476;16.656;2024-01-06T23:57:01;4.10;;;2.50;;
